sensor_id;sensor_type;location;lat;lon;timestamp;temperature;humidity
27858;DHT22;16852;51.446;6.528;2023-05-21T00:00:09;16.30;99.90
27858;DHT22;16852;51.446;6.528;2023-05-21T00:02:11;16.20;99.90
27858;DHT22;16852;51.446;6.528;2023-05-21T00:04:14;16.20;99.90
27858;DHT22;16852;51.446;6.528;2023-05-21T00:06:15;16.20;99.90
27858;DHT22;16852;51.446;6.528;2023-05-21T00:08:15;16.20;99.90
27858;DHT22;16852;51.446;6.528;2023-05-21T00:10:16;16.20;99.90
27858;DHT22;16852;51.446;6.528;2023-05-21T00:12:16;16.20;99.90
27858;DHT22;16852;51.446;6.528;2023-05-21T00:14:17;16.20;99.90
27858;DHT22;16852;51.446;6.528;2023-05-21T00:16:17;16.20;99.90
27858;DHT22;16852;51.446;6.528;2023-05-21T00:18:18;16.20;99.90
27858;DHT22;16852;51.446;6.528;2023-05-21T00:20:19;16.20;99.90
27858;DHT22;16852;51.446;6.528;2023-05-21T00:22:19;16.20;99.90
27858;DHT22;16852;51.446;6.528;2023-05-21T00:24:20;16.20;99.90
27858;DHT22;16852;51.446;6.528;2023-05-21T00:26:20;16.20;99.90
27858;DHT22;16852;51.446;6.528;2023-05-21T00:28:23;16.20;99.90
27858;DHT22;16852;51.446;6.528;2023-05-21T00:30:23;16.20;99.90
27858;DHT22;16852;51.446;6.528;2023-05-21T00:32:24;16.20;99.90
27858;DHT22;16852;51.446;6.528;2023-05-21T00:34:25;16.20;99.90
27858;DHT22;16852;51.446;6.528;2023-05-21T00:36:25;16.20;99.90
27858;DHT22;16852;51.446;6.528;2023-05-21T00:38:26;16.20;99.90
27858;DHT22;16852;51.446;6.528;2023-05-21T00:40:27;16.20;99.90
27858;DHT22;16852;51.446;6.528;2023-05-21T00:42:27;16.20;99.90
27858;DHT22;16852;51.446;6.528;2023-05-21T00:44:29;16.20;99.90
27858;DHT22;16852;51.446;6.528;2023-05-21T00:46:34;16.20;99.90
27858;DHT22;16852;51.446;6.528;2023-05-21T00:48:35;16.20;99.90
27858;DHT22;16852;51.446;6.528;2023-05-21T00:50:36;16.20;99.90
27858;DHT22;16852;51.446;6.528;2023-05-21T00:52:39;16.20;99.90
27858;DHT22;16852;51.446;6.528;2023-05-21T00:54:41;16.20;99.90
27858;DHT22;16852;51.446;6.528;2023-05-21T00:56:41;16.20;99.90
27858;DHT22;16852;51.446;6.528;2023-05-21T00:58:43;16.20;99.90
27858;DHT22;16852;51.446;6.528;2023-05-21T01:00:44;16.20;99.90
27858;DHT22;16852;51.446;6.528;2023-05-21T01:02:46;16.20;99.90
27858;DHT22;16852;51.446;6.528;2023-05-21T01:04:46;16.20;99.90
27858;DHT22;16852;51.446;6.528;2023-05-21T01:06:47;16.20;99.90
27858;DHT22;16852;51.446;6.528;2023-05-21T01:08:48;16.20;99.90
27858;DHT22;16852;51.446;6.528;2023-05-21T01:10:50;16.20;99.90
27858;DHT22;16852;51.446;6.528;2023-05-21T01:12:52;16.20;99.90
27858;DHT22;16852;51.446;6.528;2023-05-21T01:14:54;16.20;99.90
27858;DHT22;16852;51.446;6.528;2023-05-21T01:16:56;16.10;99.90
27858;DHT22;16852;51.446;6.528;2023-05-21T01:18:57;16.10;99.90
27858;DHT22;16852;51.446;6.528;2023-05-21T01:20:58;16.10;99.90
27858;DHT22;16852;51.446;6.528;2023-05-21T01:23:00;16.10;99.90
27858;DHT22;16852;51.446;6.528;2023-05-21T01:25:02;16.10;99.90
27858;DHT22;16852;51.446;6.528;2023-05-21T01:27:03;16.10;99.90
27858;DHT22;16852;51.446;6.528;2023-05-21T01:29:07;16.00;99.90
27858;DHT22;16852;51.446;6.528;2023-05-21T01:31:26;16.00;99.90
27858;DHT22;16852;51.446;6.528;2023-05-21T01:33:46;16.00;99.90
27858;DHT22;16852;51.446;6.528;2023-05-21T01:36:21;16.00;99.90
27858;DHT22;16852;51.446;6.528;2023-05-21T01:38:33;16.00;99.90
27858;DHT22;16852;51.446;6.528;2023-05-21T01:40:59;16.00;99.90
27858;DHT22;16852;51.446;6.528;2023-05-21T01:43:05;16.00;99.90
27858;DHT22;16852;51.446;6.528;2023-05-21T01:45:06;15.90;99.90
27858;DHT22;16852;51.446;6.528;2023-05-21T01:47:08;15.90;99.90
27858;DHT22;16852;51.446;6.528;2023-05-21T01:49:10;15.90;99.90
27858;DHT22;16852;51.446;6.528;2023-05-21T01:51:12;15.90;99.90
27858;DHT22;16852;51.446;6.528;2023-05-21T01:53:14;15.90;99.90
27858;DHT22;16852;51.446;6.528;2023-05-21T01:55:15;15.90;99.90
27858;DHT22;16852;51.446;6.528;2023-05-21T01:57:16;16.00;99.90
27858;DHT22;16852;51.446;6.528;2023-05-21T01:59:17;15.90;99.90
27858;DHT22;16852;51.446;6.528;2023-05-21T02:01:19;15.90;99.90
27858;DHT22;16852;51.446;6.528;2023-05-21T02:03:20;15.90;99.90
27858;DHT22;16852;51.446;6.528;2023-05-21T02:05:21;15.90;99.90
27858;DHT22;16852;51.446;6.528;2023-05-21T02:07:21;15.90;99.90
27858;DHT22;16852;51.446;6.528;2023-05-21T02:09:22;15.90;99.90
27858;DHT22;16852;51.446;6.528;2023-05-21T02:11:22;15.90;99.90
27858;DHT22;16852;51.446;6.528;2023-05-21T02:13:23;15.90;99.90
27858;DHT22;16852;51.446;6.528;2023-05-21T02:15:24;15.90;99.90
27858;DHT22;16852;51.446;6.528;2023-05-21T02:17:25;15.90;99.90
27858;DHT22;16852;51.446;6.528;2023-05-21T02:19:25;15.90;99.90
27858;DHT22;16852;51.446;6.528;2023-05-21T02:21:26;15.90;99.90
27858;DHT22;16852;51.446;6.528;2023-05-21T02:23:27;15.90;99.90
27858;DHT22;16852;51.446;6.528;2023-05-21T02:25:27;15.90;99.90
27858;DHT22;16852;51.446;6.528;2023-05-21T02:27:28;15.80;99.90
27858;DHT22;16852;51.446;6.528;2023-05-21T02:29:31;15.80;99.90
27858;DHT22;16852;51.446;6.528;2023-05-21T02:31:32;15.80;99.90
27858;DHT22;16852;51.446;6.528;2023-05-21T02:33:32;15.80;99.90
27858;DHT22;16852;51.446;6.528;2023-05-21T02:35:33;15.80;99.90
27858;DHT22;16852;51.446;6.528;2023-05-21T02:37:35;15.80;99.90
27858;DHT22;16852;51.446;6.528;2023-05-21T02:39:36;15.70;99.90
27858;DHT22;16852;51.446;6.528;2023-05-21T02:41:37;15.70;99.90
27858;DHT22;16852;51.446;6.528;2023-05-21T02:43:38;15.70;99.90
27858;DHT22;16852;51.446;6.528;2023-05-21T02:45:38;15.70;99.90
27858;DHT22;16852;51.446;6.528;2023-05-21T02:47:39;15.60;99.90
27858;DHT22;16852;51.446;6.528;2023-05-21T02:49:40;15.60;99.90
27858;DHT22;16852;51.446;6.528;2023-05-21T02:51:40;15.50;99.90
27858;DHT22;16852;51.446;6.528;2023-05-21T02:53:41;15.60;99.90
27858;DHT22;16852;51.446;6.528;2023-05-21T02:55:41;15.60;99.90
27858;DHT22;16852;51.446;6.528;2023-05-21T02:57:42;15.60;99.90
27858;DHT22;16852;51.446;6.528;2023-05-21T02:59:43;15.50;99.90
27858;DHT22;16852;51.446;6.528;2023-05-21T03:01:45;15.60;99.90
27858;DHT22;16852;51.446;6.528;2023-05-21T03:03:45;15.60;99.90
27858;DHT22;16852;51.446;6.528;2023-05-21T03:05:46;15.60;99.90
27858;DHT22;16852;51.446;6.528;2023-05-21T03:07:47;15.60;99.90
27858;DHT22;16852;51.446;6.528;2023-05-21T03:09:48;15.60;99.90
27858;DHT22;16852;51.446;6.528;2023-05-21T03:11:49;15.60;99.90
27858;DHT22;16852;51.446;6.528;2023-05-21T03:13:49;15.60;99.90
27858;DHT22;16852;51.446;6.528;2023-05-21T03:15:50;15.60;99.90
27858;DHT22;16852;51.446;6.528;2023-05-21T03:17:55;15.60;99.90
27858;DHT22;16852;51.446;6.528;2023-05-21T03:19:56;15.60;99.90
27858;DHT22;16852;51.446;6.528;2023-05-21T03:21:56;15.50;99.90
27858;DHT22;16852;51.446;6.528;2023-05-21T03:23:57;15.50;99.90
27858;DHT22;16852;51.446;6.528;2023-05-21T03:25:58;15.50;99.90
27858;DHT22;16852;51.446;6.528;2023-05-21T03:27:58;15.50;99.90
27858;DHT22;16852;51.446;6.528;2023-05-21T03:29:59;15.50;99.90
27858;DHT22;16852;51.446;6.528;2023-05-21T03:32:00;15.50;99.90
27858;DHT22;16852;51.446;6.528;2023-05-21T03:34:01;15.50;99.90
27858;DHT22;16852;51.446;6.528;2023-05-21T03:36:01;15.40;99.90
27858;DHT22;16852;51.446;6.528;2023-05-21T03:38:02;15.40;99.90
27858;DHT22;16852;51.446;6.528;2023-05-21T03:40:03;15.40;99.90
27858;DHT22;16852;51.446;6.528;2023-05-21T03:42:04;15.30;99.90
27858;DHT22;16852;51.446;6.528;2023-05-21T03:44:05;15.40;99.90
27858;DHT22;16852;51.446;6.528;2023-05-21T03:46:05;15.40;99.90
27858;DHT22;16852;51.446;6.528;2023-05-21T03:48:06;15.40;99.90
27858;DHT22;16852;51.446;6.528;2023-05-21T03:50:07;15.40;99.90
27858;DHT22;16852;51.446;6.528;2023-05-21T03:52:08;15.40;99.90
27858;DHT22;16852;51.446;6.528;2023-05-21T03:54:09;15.40;99.90
27858;DHT22;16852;51.446;6.528;2023-05-21T03:56:09;15.40;99.90
27858;DHT22;16852;51.446;6.528;2023-05-21T03:58:10;15.40;99.90
27858;DHT22;16852;51.446;6.528;2023-05-21T04:00:11;15.40;99.90
27858;DHT22;16852;51.446;6.528;2023-05-21T04:02:11;15.40;99.90
27858;DHT22;16852;51.446;6.528;2023-05-21T04:04:12;15.40;99.90
27858;DHT22;16852;51.446;6.528;2023-05-21T04:06:13;15.40;99.90
27858;DHT22;16852;51.446;6.528;2023-05-21T04:08:13;15.30;99.90
27858;DHT22;16852;51.446;6.528;2023-05-21T04:10:14;15.30;99.90
27858;DHT22;16852;51.446;6.528;2023-05-21T04:12:14;15.30;99.90
27858;DHT22;16852;51.446;6.528;2023-05-21T04:14:17;15.30;99.90
27858;DHT22;16852;51.446;6.528;2023-05-21T04:16:17;15.30;99.90
27858;DHT22;16852;51.446;6.528;2023-05-21T04:18:18;15.30;99.90
27858;DHT22;16852;51.446;6.528;2023-05-21T04:20:20;15.40;99.90
27858;DHT22;16852;51.446;6.528;2023-05-21T04:22:20;15.30;99.90
27858;DHT22;16852;51.446;6.528;2023-05-21T04:24:23;15.30;99.90
27858;DHT22;16852;51.446;6.528;2023-05-21T04:26:23;15.20;99.90
27858;DHT22;16852;51.446;6.528;2023-05-21T04:28:24;15.20;99.90
27858;DHT22;16852;51.446;6.528;2023-05-21T04:30:27;15.30;99.90
27858;DHT22;16852;51.446;6.528;2023-05-21T04:32:28;15.30;99.90
27858;DHT22;16852;51.446;6.528;2023-05-21T04:34:30;15.30;99.90
27858;DHT22;16852;51.446;6.528;2023-05-21T04:36:33;15.30;99.90
27858;DHT22;16852;51.446;6.528;2023-05-21T04:38:33;15.30;99.90
27858;DHT22;16852;51.446;6.528;2023-05-21T04:40:36;15.30;99.90
27858;DHT22;16852;51.446;6.528;2023-05-21T04:42:36;15.40;99.90
27858;DHT22;16852;51.446;6.528;2023-05-21T04:44:38;15.40;99.90
27858;DHT22;16852;51.446;6.528;2023-05-21T04:46:39;15.40;99.90
27858;DHT22;16852;51.446;6.528;2023-05-21T04:48:40;15.40;99.90
27858;DHT22;16852;51.446;6.528;2023-05-21T04:50:41;15.50;99.90
27858;DHT22;16852;51.446;6.528;2023-05-21T04:52:42;15.50;99.90
27858;DHT22;16852;51.446;6.528;2023-05-21T04:54:44;15.50;99.90
27858;DHT22;16852;51.446;6.528;2023-05-21T04:56:47;15.50;99.90
27858;DHT22;16852;51.446;6.528;2023-05-21T04:58:47;15.50;99.90
27858;DHT22;16852;51.446;6.528;2023-05-21T05:00:48;15.50;99.90
27858;DHT22;16852;51.446;6.528;2023-05-21T05:02:51;15.60;99.90
27858;DHT22;16852;51.446;6.528;2023-05-21T05:04:51;15.60;99.90
27858;DHT22;16852;51.446;6.528;2023-05-21T05:06:52;15.60;99.90
27858;DHT22;16852;51.446;6.528;2023-05-21T05:08:52;15.60;99.90
27858;DHT22;16852;51.446;6.528;2023-05-21T05:10:53;15.60;99.90
27858;DHT22;16852;51.446;6.528;2023-05-21T05:12:53;15.60;99.90
27858;DHT22;16852;51.446;6.528;2023-05-21T05:14:54;15.60;99.90
27858;DHT22;16852;51.446;6.528;2023-05-21T05:16:54;15.50;99.90
27858;DHT22;16852;51.446;6.528;2023-05-21T05:18:59;15.50;99.90
27858;DHT22;16852;51.446;6.528;2023-05-21T05:21:00;15.50;99.90
27858;DHT22;16852;51.446;6.528;2023-05-21T05:23:00;15.50;99.90
27858;DHT22;16852;51.446;6.528;2023-05-21T05:25:01;15.50;99.90
27858;DHT22;16852;51.446;6.528;2023-05-21T05:27:02;15.40;99.90
27858;DHT22;16852;51.446;6.528;2023-05-21T05:29:02;15.40;99.90
27858;DHT22;16852;51.446;6.528;2023-05-21T05:31:03;15.50;99.90
27858;DHT22;16852;51.446;6.528;2023-05-21T05:33:04;15.50;99.90
27858;DHT22;16852;51.446;6.528;2023-05-21T05:35:05;15.50;99.90
27858;DHT22;16852;51.446;6.528;2023-05-21T05:37:06;15.60;99.90
27858;DHT22;16852;51.446;6.528;2023-05-21T05:39:06;15.60;99.90
27858;DHT22;16852;51.446;6.528;2023-05-21T05:41:08;15.60;99.90
27858;DHT22;16852;51.446;6.528;2023-05-21T05:43:08;15.70;99.90
27858;DHT22;16852;51.446;6.528;2023-05-21T05:45:09;15.70;99.90
27858;DHT22;16852;51.446;6.528;2023-05-21T05:47:10;15.60;99.90
27858;DHT22;16852;51.446;6.528;2023-05-21T05:49:11;15.70;99.90
27858;DHT22;16852;51.446;6.528;2023-05-21T05:51:13;15.70;99.90
27858;DHT22;16852;51.446;6.528;2023-05-21T05:53:14;15.80;99.90
27858;DHT22;16852;51.446;6.528;2023-05-21T05:55:15;15.80;99.90
27858;DHT22;16852;51.446;6.528;2023-05-21T05:57:15;15.80;99.90
27858;DHT22;16852;51.446;6.528;2023-05-21T05:59:16;15.70;99.90
27858;DHT22;16852;51.446;6.528;2023-05-21T06:01:18;15.70;99.90
27858;DHT22;16852;51.446;6.528;2023-05-21T06:03:18;15.80;99.90
27858;DHT22;16852;51.446;6.528;2023-05-21T06:05:19;15.80;99.90
27858;DHT22;16852;51.446;6.528;2023-05-21T06:07:19;15.80;99.90
27858;DHT22;16852;51.446;6.528;2023-05-21T06:09:20;15.80;99.90
27858;DHT22;16852;51.446;6.528;2023-05-21T06:11:21;15.70;99.90
27858;DHT22;16852;51.446;6.528;2023-05-21T06:13:22;15.80;99.90
27858;DHT22;16852;51.446;6.528;2023-05-21T06:15:22;15.80;99.90
27858;DHT22;16852;51.446;6.528;2023-05-21T06:17:23;15.80;99.90
27858;DHT22;16852;51.446;6.528;2023-05-21T06:19:23;15.90;99.90
27858;DHT22;16852;51.446;6.528;2023-05-21T06:21:24;15.80;99.90
27858;DHT22;16852;51.446;6.528;2023-05-21T06:23:24;16.00;99.90
27858;DHT22;16852;51.446;6.528;2023-05-21T06:25:25;16.00;99.90
27858;DHT22;16852;51.446;6.528;2023-05-21T06:27:26;16.20;99.90
27858;DHT22;16852;51.446;6.528;2023-05-21T06:29:26;16.20;99.90
27858;DHT22;16852;51.446;6.528;2023-05-21T06:31:27;16.30;99.90
27858;DHT22;16852;51.446;6.528;2023-05-21T06:33:28;16.40;99.90
27858;DHT22;16852;51.446;6.528;2023-05-21T06:35:28;16.60;99.90
27858;DHT22;16852;51.446;6.528;2023-05-21T06:37:29;16.60;99.90
27858;DHT22;16852;51.446;6.528;2023-05-21T06:39:29;16.80;99.90
27858;DHT22;16852;51.446;6.528;2023-05-21T06:41:30;16.80;99.90
27858;DHT22;16852;51.446;6.528;2023-05-21T06:43:31;16.90;99.90
27858;DHT22;16852;51.446;6.528;2023-05-21T06:45:31;17.00;99.90
27858;DHT22;16852;51.446;6.528;2023-05-21T06:47:32;17.10;99.90
27858;DHT22;16852;51.446;6.528;2023-05-21T06:49:33;17.10;99.90
27858;DHT22;16852;51.446;6.528;2023-05-21T06:51:34;17.30;99.90
27858;DHT22;16852;51.446;6.528;2023-05-21T06:53:34;17.40;99.90
27858;DHT22;16852;51.446;6.528;2023-05-21T06:55:35;17.40;99.90
27858;DHT22;16852;51.446;6.528;2023-05-21T06:57:37;17.30;99.90
27858;DHT22;16852;51.446;6.528;2023-05-21T06:59:38;17.40;99.90
27858;DHT22;16852;51.446;6.528;2023-05-21T07:01:38;17.40;99.90
27858;DHT22;16852;51.446;6.528;2023-05-21T07:03:41;17.40;99.90
27858;DHT22;16852;51.446;6.528;2023-05-21T07:05:42;17.40;99.90
27858;DHT22;16852;51.446;6.528;2023-05-21T07:07:42;17.50;99.90
27858;DHT22;16852;51.446;6.528;2023-05-21T07:09:43;17.60;99.90
27858;DHT22;16852;51.446;6.528;2023-05-21T07:11:44;17.70;99.90
27858;DHT22;16852;51.446;6.528;2023-05-21T07:13:44;17.70;99.90
27858;DHT22;16852;51.446;6.528;2023-05-21T07:15:45;17.80;99.90
27858;DHT22;16852;51.446;6.528;2023-05-21T07:17:46;17.90;99.90
27858;DHT22;16852;51.446;6.528;2023-05-21T07:19:46;18.00;99.90
27858;DHT22;16852;51.446;6.528;2023-05-21T07:21:47;18.00;99.90
27858;DHT22;16852;51.446;6.528;2023-05-21T07:23:48;18.10;99.90
27858;DHT22;16852;51.446;6.528;2023-05-21T07:25:48;18.20;99.90
27858;DHT22;16852;51.446;6.528;2023-05-21T07:27:49;18.30;99.90
27858;DHT22;16852;51.446;6.528;2023-05-21T07:29:50;18.40;99.90
27858;DHT22;16852;51.446;6.528;2023-05-21T07:31:50;18.50;99.90
27858;DHT22;16852;51.446;6.528;2023-05-21T07:33:51;18.50;99.90
27858;DHT22;16852;51.446;6.528;2023-05-21T07:35:51;18.50;99.90
27858;DHT22;16852;51.446;6.528;2023-05-21T07:37:52;18.60;99.90
27858;DHT22;16852;51.446;6.528;2023-05-21T07:39:56;18.60;99.90
27858;DHT22;16852;51.446;6.528;2023-05-21T07:41:58;18.60;99.90
27858;DHT22;16852;51.446;6.528;2023-05-21T07:43:58;18.70;99.90
27858;DHT22;16852;51.446;6.528;2023-05-21T07:46:01;18.70;99.90
27858;DHT22;16852;51.446;6.528;2023-05-21T07:48:01;18.60;99.90
27858;DHT22;16852;51.446;6.528;2023-05-21T07:50:02;18.60;99.90
27858;DHT22;16852;51.446;6.528;2023-05-21T07:52:03;18.70;99.90
27858;DHT22;16852;51.446;6.528;2023-05-21T07:54:04;18.70;99.90
27858;DHT22;16852;51.446;6.528;2023-05-21T07:56:05;18.60;99.90
27858;DHT22;16852;51.446;6.528;2023-05-21T07:58:05;18.70;99.90
27858;DHT22;16852;51.446;6.528;2023-05-21T08:00:07;18.70;99.90
27858;DHT22;16852;51.446;6.528;2023-05-21T08:02:13;18.80;99.90
27858;DHT22;16852;51.446;6.528;2023-05-21T08:04:14;18.90;99.90
27858;DHT22;16852;51.446;6.528;2023-05-21T08:06:14;18.90;99.90
27858;DHT22;16852;51.446;6.528;2023-05-21T08:08:18;18.80;99.90
27858;DHT22;16852;51.446;6.528;2023-05-21T08:10:19;18.80;99.90
27858;DHT22;16852;51.446;6.528;2023-05-21T08:12:19;18.90;99.90
27858;DHT22;16852;51.446;6.528;2023-05-21T08:14:20;18.90;99.90
27858;DHT22;16852;51.446;6.528;2023-05-21T08:16:21;18.90;99.90
27858;DHT22;16852;51.446;6.528;2023-05-21T08:18:22;18.80;99.90
27858;DHT22;16852;51.446;6.528;2023-05-21T08:20:24;18.80;99.90
27858;DHT22;16852;51.446;6.528;2023-05-21T08:22:25;18.90;99.90
27858;DHT22;16852;51.446;6.528;2023-05-21T08:24:26;19.00;99.90
27858;DHT22;16852;51.446;6.528;2023-05-21T08:26:26;19.00;99.90
27858;DHT22;16852;51.446;6.528;2023-05-21T08:28:27;19.00;99.90
27858;DHT22;16852;51.446;6.528;2023-05-21T08:30:28;19.00;99.90
27858;DHT22;16852;51.446;6.528;2023-05-21T08:32:28;19.00;99.90
27858;DHT22;16852;51.446;6.528;2023-05-21T08:34:29;19.00;99.90
27858;DHT22;16852;51.446;6.528;2023-05-21T08:36:31;19.10;99.90
27858;DHT22;16852;51.446;6.528;2023-05-21T08:38:31;19.10;99.90
27858;DHT22;16852;51.446;6.528;2023-05-21T08:40:33;19.10;99.90
27858;DHT22;16852;51.446;6.528;2023-05-21T08:42:47;19.00;99.90
27858;DHT22;16852;51.446;6.528;2023-05-21T08:44:50;19.00;99.90
27858;DHT22;16852;51.446;6.528;2023-05-21T08:46:53;19.00;99.90
27858;DHT22;16852;51.446;6.528;2023-05-21T08:48:55;19.10;99.90
27858;DHT22;16852;51.446;6.528;2023-05-21T08:50:58;19.00;99.90
27858;DHT22;16852;51.446;6.528;2023-05-21T08:53:00;19.00;99.90
27858;DHT22;16852;51.446;6.528;2023-05-21T08:55:03;18.90;99.90
27858;DHT22;16852;51.446;6.528;2023-05-21T08:57:04;18.90;99.90
27858;DHT22;16852;51.446;6.528;2023-05-21T08:59:05;18.90;99.90
27858;DHT22;16852;51.446;6.528;2023-05-21T09:01:06;18.90;99.90
27858;DHT22;16852;51.446;6.528;2023-05-21T09:03:09;18.90;99.90
27858;DHT22;16852;51.446;6.528;2023-05-21T09:05:12;18.90;99.90
27858;DHT22;16852;51.446;6.528;2023-05-21T09:07:14;19.00;99.90
27858;DHT22;16852;51.446;6.528;2023-05-21T09:09:23;19.10;99.90
27858;DHT22;16852;51.446;6.528;2023-05-21T09:11:25;19.20;99.90
27858;DHT22;16852;51.446;6.528;2023-05-21T09:13:27;19.20;99.90
27858;DHT22;16852;51.446;6.528;2023-05-21T09:15:28;19.10;99.90
27858;DHT22;16852;51.446;6.528;2023-05-21T09:17:29;19.10;99.90
27858;DHT22;16852;51.446;6.528;2023-05-21T09:19:30;19.10;99.90
27858;DHT22;16852;51.446;6.528;2023-05-21T09:21:31;19.20;99.90
27858;DHT22;16852;51.446;6.528;2023-05-21T09:23:32;19.30;99.90
27858;DHT22;16852;51.446;6.528;2023-05-21T09:25:36;19.40;99.90
27858;DHT22;16852;51.446;6.528;2023-05-21T09:27:38;19.40;99.90
27858;DHT22;16852;51.446;6.528;2023-05-21T09:29:41;19.50;99.90
27858;DHT22;16852;51.446;6.528;2023-05-21T09:31:44;19.60;99.90
27858;DHT22;16852;51.446;6.528;2023-05-21T09:33:46;19.70;99.90
27858;DHT22;16852;51.446;6.528;2023-05-21T09:35:50;19.70;99.90
27858;DHT22;16852;51.446;6.528;2023-05-21T09:37:51;19.70;99.90
27858;DHT22;16852;51.446;6.528;2023-05-21T09:39:52;19.70;99.90
27858;DHT22;16852;51.446;6.528;2023-05-21T09:41:56;19.70;99.90
27858;DHT22;16852;51.446;6.528;2023-05-21T09:44:03;19.80;99.90
27858;DHT22;16852;51.446;6.528;2023-05-21T09:46:03;19.90;99.90
27858;DHT22;16852;51.446;6.528;2023-05-21T09:48:04;19.90;99.90
27858;DHT22;16852;51.446;6.528;2023-05-21T09:50:05;20.00;99.90
27858;DHT22;16852;51.446;6.528;2023-05-21T09:52:06;20.10;99.90
27858;DHT22;16852;51.446;6.528;2023-05-21T09:54:09;20.20;99.90
27858;DHT22;16852;51.446;6.528;2023-05-21T09:56:10;20.30;99.90
27858;DHT22;16852;51.446;6.528;2023-05-21T09:58:11;20.40;99.90
27858;DHT22;16852;51.446;6.528;2023-05-21T10:00:21;20.50;99.90
27858;DHT22;16852;51.446;6.528;2023-05-21T10:02:23;20.50;99.90
27858;DHT22;16852;51.446;6.528;2023-05-21T10:04:24;20.40;99.90
27858;DHT22;16852;51.446;6.528;2023-05-21T10:06:29;20.40;99.90
27858;DHT22;16852;51.446;6.528;2023-05-21T10:08:34;20.30;99.90
27858;DHT22;16852;51.446;6.528;2023-05-21T10:10:37;20.40;99.90
27858;DHT22;16852;51.446;6.528;2023-05-21T10:12:45;20.50;99.90
27858;DHT22;16852;51.446;6.528;2023-05-21T10:14:50;20.60;99.90
27858;DHT22;16852;51.446;6.528;2023-05-21T10:16:53;20.80;99.90
27858;DHT22;16852;51.446;6.528;2023-05-21T10:18:55;20.90;99.90
27858;DHT22;16852;51.446;6.528;2023-05-21T10:20:58;21.00;99.90
27858;DHT22;16852;51.446;6.528;2023-05-21T10:23:01;20.90;99.90
27858;DHT22;16852;51.446;6.528;2023-05-21T10:25:02;21.00;99.90
27858;DHT22;16852;51.446;6.528;2023-05-21T10:27:05;21.00;99.90
27858;DHT22;16852;51.446;6.528;2023-05-21T10:29:07;20.90;99.90
27858;DHT22;16852;51.446;6.528;2023-05-21T10:31:08;20.80;99.90
27858;DHT22;16852;51.446;6.528;2023-05-21T10:33:09;20.80;99.90
27858;DHT22;16852;51.446;6.528;2023-05-21T10:35:12;20.80;99.90
27858;DHT22;16852;51.446;6.528;2023-05-21T10:37:15;20.90;99.90
27858;DHT22;16852;51.446;6.528;2023-05-21T10:39:17;20.90;99.90
27858;DHT22;16852;51.446;6.528;2023-05-21T10:41:20;20.90;99.90
27858;DHT22;16852;51.446;6.528;2023-05-21T10:50:53;21.30;99.90
27858;DHT22;16852;51.446;6.528;2023-05-21T10:53:10;21.50;99.90
27858;DHT22;16852;51.446;6.528;2023-05-21T11:00:24;21.90;99.90
27858;DHT22;16852;51.446;6.528;2023-05-21T11:02:27;22.00;99.90
27858;DHT22;16852;51.446;6.528;2023-05-21T11:04:28;22.10;99.90
27858;DHT22;16852;51.446;6.528;2023-05-21T11:06:28;22.20;99.90
27858;DHT22;16852;51.446;6.528;2023-05-21T11:08:30;22.20;99.90
27858;DHT22;16852;51.446;6.528;2023-05-21T11:10:38;22.30;99.90
27858;DHT22;16852;51.446;6.528;2023-05-21T11:13:06;22.40;99.90
27858;DHT22;16852;51.446;6.528;2023-05-21T11:15:07;22.40;99.90
27858;DHT22;16852;51.446;6.528;2023-05-21T11:19:16;22.50;99.90
27858;DHT22;16852;51.446;6.528;2023-05-21T11:21:19;22.50;99.90
27858;DHT22;16852;51.446;6.528;2023-05-21T11:23:20;22.40;99.90
27858;DHT22;16852;51.446;6.528;2023-05-21T11:25:21;22.50;99.90
27858;DHT22;16852;51.446;6.528;2023-05-21T11:27:37;22.50;99.90
27858;DHT22;16852;51.446;6.528;2023-05-21T11:29:39;22.30;99.90
27858;DHT22;16852;51.446;6.528;2023-05-21T11:31:49;22.40;99.90
27858;DHT22;16852;51.446;6.528;2023-05-21T11:34:35;22.30;99.90
27858;DHT22;16852;51.446;6.528;2023-05-21T11:36:37;22.40;99.90
27858;DHT22;16852;51.446;6.528;2023-05-21T11:38:38;22.40;99.90
27858;DHT22;16852;51.446;6.528;2023-05-21T11:40:52;22.30;99.90
27858;DHT22;16852;51.446;6.528;2023-05-21T11:42:56;22.30;99.90
27858;DHT22;16852;51.446;6.528;2023-05-21T11:44:57;22.40;99.90
27858;DHT22;16852;51.446;6.528;2023-05-21T11:46:58;22.30;99.90
27858;DHT22;16852;51.446;6.528;2023-05-21T11:48:59;22.50;99.90
27858;DHT22;16852;51.446;6.528;2023-05-21T11:51:00;22.50;99.90
27858;DHT22;16852;51.446;6.528;2023-05-21T11:53:01;22.40;99.90
27858;DHT22;16852;51.446;6.528;2023-05-21T11:55:03;22.40;99.90
27858;DHT22;16852;51.446;6.528;2023-05-21T11:57:07;22.60;99.90
27858;DHT22;16852;51.446;6.528;2023-05-21T11:59:14;22.70;99.90
27858;DHT22;16852;51.446;6.528;2023-05-21T12:01:22;22.80;99.90
27858;DHT22;16852;51.446;6.528;2023-05-21T12:03:22;22.70;99.90
27858;DHT22;16852;51.446;6.528;2023-05-21T12:05:25;22.90;99.90
27858;DHT22;16852;51.446;6.528;2023-05-21T12:07:27;22.90;99.90
27858;DHT22;16852;51.446;6.528;2023-05-21T12:09:30;23.00;99.90
27858;DHT22;16852;51.446;6.528;2023-05-21T12:11:37;22.90;99.90
27858;DHT22;16852;51.446;6.528;2023-05-21T12:13:41;22.80;99.90
27858;DHT22;16852;51.446;6.528;2023-05-21T12:15:41;22.80;99.90
27858;DHT22;16852;51.446;6.528;2023-05-21T12:17:42;22.90;99.90
27858;DHT22;16852;51.446;6.528;2023-05-21T12:19:43;22.80;99.90
27858;DHT22;16852;51.446;6.528;2023-05-21T12:21:44;22.70;99.90
27858;DHT22;16852;51.446;6.528;2023-05-21T12:23:46;22.80;99.90
27858;DHT22;16852;51.446;6.528;2023-05-21T12:25:47;22.70;99.90
27858;DHT22;16852;51.446;6.528;2023-05-21T12:27:48;22.70;99.90
27858;DHT22;16852;51.446;6.528;2023-05-21T12:29:52;22.80;99.90
27858;DHT22;16852;51.446;6.528;2023-05-21T12:31:52;22.90;99.90
27858;DHT22;16852;51.446;6.528;2023-05-21T12:33:53;22.90;99.90
27858;DHT22;16852;51.446;6.528;2023-05-21T12:35:53;22.70;99.90
27858;DHT22;16852;51.446;6.528;2023-05-21T12:37:54;22.80;99.90
27858;DHT22;16852;51.446;6.528;2023-05-21T12:39:58;22.80;99.90
27858;DHT22;16852;51.446;6.528;2023-05-21T12:42:01;22.80;99.90
27858;DHT22;16852;51.446;6.528;2023-05-21T12:44:01;22.70;99.90
27858;DHT22;16852;51.446;6.528;2023-05-21T12:46:04;22.90;99.90
27858;DHT22;16852;51.446;6.528;2023-05-21T12:48:05;22.90;99.90
27858;DHT22;16852;51.446;6.528;2023-05-21T12:50:08;23.00;99.90
27858;DHT22;16852;51.446;6.528;2023-05-21T12:52:14;23.10;99.90
27858;DHT22;16852;51.446;6.528;2023-05-21T12:54:14;23.20;99.90
27858;DHT22;16852;51.446;6.528;2023-05-21T12:56:15;23.30;99.90
27858;DHT22;16852;51.446;6.528;2023-05-21T12:58:20;23.30;99.90
27858;DHT22;16852;51.446;6.528;2023-05-21T13:00:24;23.40;99.90
27858;DHT22;16852;51.446;6.528;2023-05-21T13:02:30;23.40;99.90
27858;DHT22;16852;51.446;6.528;2023-05-21T13:04:35;23.50;99.90